Time;durP1;ratioP1;P1;durP2;ratioP2;P2;SDS_P1;SDS_P2;PMS_P1;PMS_P2;Temp;Humidity;BMP_temperature;BMP_pressure;BME280_temperature;BME280_humidity;BME280_pressure;Samples;Min_cycle;Max_cycle;Signal;HPM_P1;HPM_P2
2021/07/01 00:01:53;;;;;;;12.20;6.57;;;14.80;82.50;;;;;;6251476;22;20020;-82
2021/07/01 00:04:34;;;;;;;9.15;6.70;;;14.80;82.50;;;;;;6275886;22;20489;-83
2021/07/01 00:07:11;;;;;;;14.85;6.38;;;14.70;82.60;;;;;;6276793;22;20104;-83
2021/07/01 00:09:39;;;;;;;18.60;7.90;;;14.70;82.70;;;;;;6250658;22;20374;-82
2021/07/01 00:12:06;;;;;;;11.18;6.50;;;14.80;82.70;;;;;;6301547;22;20354;-80
2021/07/01 00:14:33;;;;;;;9.85;6.40;;;14.70;82.70;;;;;;6250301;22;20066;-82
2021/07/01 00:17:00;;;;;;;10.50;6.55;;;14.70;82.70;;;;;;6301742;22;20107;-83
2021/07/01 00:19:27;;;;;;;11.20;6.70;;;14.70;82.70;;;;;;6250478;22;20047;-82
2021/07/01 00:21:55;;;;;;;10.85;6.22;;;14.70;82.70;;;;;;6277495;22;20352;-82
2021/07/01 00:24:22;;;;;;;16.30;7.05;;;14.80;82.70;;;;;;6250489;22;20467;-82
2021/07/01 00:26:50;;;;;;;13.02;6.50;;;14.70;82.70;;;;;;6250249;22;20023;-82
2021/07/01 00:29:17;;;;;;;15.32;8.02;;;14.80;82.80;;;;;;6250613;22;20070;-82
2021/07/01 00:31:44;;;;;;;11.57;6.55;;;14.70;82.80;;;;;;6275475;22;20016;-82
2021/07/01 00:34:11;;;;;;;15.48;6.97;;;14.70;82.80;;;;;;6249850;22;20425;-83
2021/07/01 00:36:39;;;;;;;17.83;7.28;;;14.70;82.90;;;;;;6249532;22;20042;-80
2021/07/01 00:39:06;;;;;;;18.60;7.38;;;14.70;83.00;;;;;;6250636;22;20376;-82
2021/07/01 00:41:34;;;;;;;17.58;7.90;;;14.70;83.00;;;;;;6276783;22;20030;-82
2021/07/01 00:44:03;;;;;;;15.52;8.25;;;14.80;83.00;;;;;;6250579;22;20501;-81
2021/07/01 00:46:31;;;;;;;11.70;7.55;;;14.80;83.00;;;;;;6250177;22;20467;-81
2021/07/01 00:48:58;;;;;;;13.77;7.43;;;14.80;83.00;;;;;;6249637;22;20458;-82
2021/07/01 00:51:26;;;;;;;16.90;7.03;;;14.80;83.00;;;;;;6250216;22;20086;-82
2021/07/01 00:53:53;;;;;;;9.48;6.25;;;14.80;83.00;;;;;;6277239;22;20022;-83
2021/07/01 00:56:20;;;;;;;7.95;5.93;;;14.80;83.00;;;;;;6249904;22;20011;-80
2021/07/01 00:58:52;;;;;;;8.32;5.57;;;14.80;83.00;;;;;;6250491;22;20016;-81
2021/07/01 01:01:21;;;;;;;12.18;7.20;;;14.70;83.00;;;;;;6250155;22;20016;-80
2021/07/01 01:03:48;;;;;;;14.20;6.22;;;14.70;82.90;;;;;;6249776;22;20020;-83
2021/07/01 01:06:15;;;;;;;8.65;5.40;;;14.80;82.90;;;;;;6250316;22;20090;-82
2021/07/01 01:08:42;;;;;;;9.57;5.60;;;14.80;82.90;;;;;;6249896;22;20091;-80
2021/07/01 01:11:09;;;;;;;16.23;5.85;;;14.80;82.90;;;;;;6249661;22;20011;-83
2021/07/01 01:13:36;;;;;;;10.60;5.53;;;14.80;82.90;;;;;;6276868;22;20014;-80
2021/07/01 01:16:04;;;;;;;12.57;5.20;;;14.80;83.00;;;;;;6249958;22;20020;-83
2021/07/01 01:18:31;;;;;;;11.75;5.18;;;14.80;83.00;;;;;;6249779;22;20058;-83
2021/07/01 01:21:00;;;;;;;7.15;4.28;;;14.80;82.90;;;;;;6250114;22;20022;-82
2021/07/01 01:23:27;;;;;;;10.75;4.45;;;14.80;82.90;;;;;;6276823;22;20016;-82
2021/07/01 01:25:58;;;;;;;9.90;4.18;;;14.80;82.90;;;;;;6276877;22;20023;-81
2021/07/01 01:28:26;;;;;;;8.88;4.78;;;14.80;82.90;;;;;;6276525;22;20486;-84
2021/07/01 01:30:53;;;;;;;7.72;4.15;;;14.70;82.90;;;;;;6249119;22;20016;-83
2021/07/01 01:33:20;;;;;;;11.48;4.70;;;14.70;82.90;;;;;;6276150;22;20019;-80
2021/07/01 01:35:47;;;;;;;9.23;4.90;;;14.70;82.90;;;;;;6276426;22;20011;-81
2021/07/01 01:38:17;;;;;;;10.48;4.88;;;14.70;82.90;;;;;;6250062;22;20016;-82
2021/07/01 01:40:47;;;;;;;6.72;4.65;;;14.70;82.90;;;;;;6249820;22;20359;-81
2021/07/01 01:43:15;;;;;;;14.82;4.90;;;14.70;82.90;;;;;;6276420;22;20020;-80
2021/07/01 01:45:43;;;;;;;9.50;4.40;;;14.70;82.90;;;;;;6300462;22;20022;-81
2021/07/01 01:48:11;;;;;;;14.40;4.95;;;14.70;82.90;;;;;;6249431;22;20070;-82
2021/07/01 01:50:40;;;;;;;7.45;4.20;;;14.70;82.90;;;;;;6276579;22;20016;-80
2021/07/01 01:53:08;;;;;;;8.32;4.68;;;14.70;82.90;;;;;;6249655;22;20011;-81
2021/07/01 01:55:36;;;;;;;8.15;4.78;;;14.70;82.90;;;;;;6276515;22;20015;-80
2021/07/01 01:58:05;;;;;;;9.27;5.30;;;14.70;82.90;;;;;;6249271;22;20015;-83
2021/07/01 02:00:33;;;;;;;13.40;6.28;;;14.70;83.00;;;;;;6249245;22;20486;-82
2021/07/01 02:03:01;;;;;;;12.05;5.55;;;14.70;82.90;;;;;;6249464;22;20019;-83
2021/07/01 02:05:29;;;;;;;10.88;5.35;;;14.70;82.90;;;;;;6249884;22;20022;-83
2021/07/01 02:07:56;;;;;;;8.57;5.90;;;14.70;82.90;;;;;;6249681;22;20027;-82
2021/07/01 02:10:26;;;;;;;8.55;5.53;;;14.70;83.00;;;;;;6249195;22;20026;-80
2021/07/01 02:12:53;;;;;;;10.00;5.78;;;14.70;83.00;;;;;;6249194;22;20012;-80
2021/07/01 02:15:22;;;;;;;8.52;5.13;;;14.70;83.10;;;;;;6249332;22;20042;-81
2021/07/01 02:17:50;;;;;;;10.45;5.32;;;14.70;83.10;;;;;;6276028;22;20015;-82
2021/07/01 02:20:23;;;;;;;8.57;5.82;;;14.70;83.10;;;;;;6249505;22;20020;-82
2021/07/01 02:22:50;;;;;;;13.15;5.63;;;14.70;83.10;;;;;;6249667;22;20015;-80
2021/07/01 02:25:17;;;;;;;16.98;5.88;;;14.70;83.10;;;;;;6249157;22;20030;-82
2021/07/01 02:27:45;;;;;;;13.38;5.93;;;14.70;83.10;;;;;;6276065;22;20016;-80
2021/07/01 02:30:15;;;;;;;10.63;6.18;;;14.70;83.10;;;;;;6275820;22;20054;-85
2021/07/01 02:32:43;;;;;;;9.18;6.63;;;14.70;83.10;;;;;;6274936;22;20020;-81
2021/07/01 02:35:29;;;;;;;9.02;5.45;;;14.60;83.10;;;;;;6275896;22;20367;-83
2021/07/01 02:37:56;;;;;;;12.68;5.70;;;14.70;83.20;;;;;;6275987;22;20374;-81
2021/07/01 02:40:23;;;;;;;10.93;6.53;;;14.60;83.20;;;;;;6248967;22;20091;-81
2021/07/01 02:42:50;;;;;;;12.88;6.80;;;14.60;83.20;;;;;;6250322;22;20027;-83
2021/07/01 02:45:17;;;;;;;10.27;5.55;;;14.70;83.20;;;;;;6250752;22;20019;-83
2021/07/01 02:47:44;;;;;;;6.65;4.35;;;14.60;83.20;;;;;;6251383;22;20020;-82
2021/07/01 02:50:12;;;;;;;10.30;5.32;;;14.60;83.20;;;;;;6277871;22;20015;-83
2021/07/01 02:52:39;;;;;;;16.42;5.88;;;14.70;83.20;;;;;;6277924;22;20026;-83
2021/07/01 02:55:08;;;;;;;17.23;5.50;;;14.60;83.20;;;;;;6251734;22;20022;-80
2021/07/01 02:57:37;;;;;;;8.68;5.53;;;14.60;83.20;;;;;;6251104;22;20427;-81
2021/07/01 03:00:08;;;;;;;11.60;5.85;;;14.60;83.30;;;;;;6251018;22;20498;-81
2021/07/01 03:02:35;;;;;;;7.95;6.10;;;14.60;83.20;;;;;;6251047;22;20022;-81
2021/07/01 03:05:03;;;;;;;10.27;6.25;;;14.70;83.20;;;;;;6276434;22;20022;-81
2021/07/01 03:07:30;;;;;;;16.45;6.95;;;14.60;83.20;;;;;;6251153;22;20022;-82
2021/07/01 03:09:59;;;;;;;9.60;5.22;;;14.60;83.20;;;;;;6250898;22;20016;-80
2021/07/01 03:12:26;;;;;;;12.40;6.55;;;14.60;83.30;;;;;;6250746;22;20099;-79
2021/07/01 03:14:53;;;;;;;10.77;6.47;;;14.60;83.30;;;;;;6276318;22;20019;-83
2021/07/01 03:17:20;;;;;;;13.07;7.25;;;14.60;83.30;;;;;;6276438;22;20026;-84
2021/07/01 03:19:47;;;;;;;13.48;6.25;;;14.60;83.30;;;;;;6251177;22;20020;-83
2021/07/01 03:22:14;;;;;;;14.73;7.05;;;14.50;83.30;;;;;;6302111;22;20020;-82
2021/07/01 03:24:41;;;;;;;10.30;6.20;;;14.60;83.30;;;;;;6250993;22;20419;-82
2021/07/01 03:27:09;;;;;;;15.10;7.15;;;14.60;83.30;;;;;;6250911;22;20022;-81
2021/07/01 03:29:36;;;;;;;16.67;6.38;;;14.60;83.40;;;;;;6251062;22;20070;-84
2021/07/01 03:32:04;;;;;;;14.15;6.50;;;14.50;83.40;;;;;;6276503;22;20363;-81
2021/07/01 03:34:33;;;;;;;13.40;7.05;;;14.50;83.40;;;;;;6277914;22;20016;-82
2021/07/01 03:37:00;;;;;;;10.05;6.25;;;14.60;83.40;;;;;;6251255;22;20440;-81
2021/07/01 03:39:27;;;;;;;12.85;7.38;;;14.60;83.40;;;;;;6276921;22;20012;-80
2021/07/01 03:41:54;;;;;;;12.93;7.90;;;14.50;83.40;;;;;;6251023;22;20019;-83
2021/07/01 03:44:22;;;;;;;11.70;6.78;;;14.60;83.40;;;;;;6250600;22;20478;-82
2021/07/01 03:46:51;;;;;;;10.48;8.02;;;14.50;83.40;;;;;;6277272;22;20015;-80
2021/07/01 03:49:19;;;;;;;13.00;7.97;;;14.50;83.40;;;;;;6250526;22;20485;-81
2021/07/01 03:51:46;;;;;;;19.23;9.32;;;14.50;83.40;;;;;;6277548;22;20016;-83
2021/07/01 03:54:14;;;;;;;13.50;8.15;;;14.60;83.50;;;;;;6250161;22;20489;-80
2021/07/01 03:56:41;;;;;;;12.43;8.52;;;14.60;83.50;;;;;;6276126;22;20022;-83
2021/07/01 03:59:13;;;;;;;20.80;9.40;;;14.60;83.50;;;;;;6250521;22;20016;-82
2021/07/01 04:01:41;;;;;;;16.50;8.40;;;14.60;83.50;;;;;;6250614;22;20020;-80
2021/07/01 04:04:09;;;;;;;19.35;10.15;;;14.60;83.50;;;;;;6277258;22;20034;-81
2021/07/01 04:06:36;;;;;;;24.27;10.20;;;14.50;83.60;;;;;;6301596;22;20022;-80
2021/07/01 04:09:05;;;;;;;15.30;10.05;;;14.50;83.60;;;;;;6250765;22;20020;-81
2021/07/01 04:11:33;;;;;;;15.98;10.32;;;14.60;83.60;;;;;;6301148;22;20012;-81
2021/07/01 04:14:00;;;;;;;20.25;9.95;;;14.50;83.60;;;;;;6277721;22;20015;-81
2021/07/01 04:16:27;;;;;;;15.20;10.27;;;14.50;83.70;;;;;;6250683;22;20091;-84
2021/07/01 04:18:54;;;;;;;14.07;10.00;;;14.50;83.70;;;;;;6250654;22;20015;-79
2021/07/01 04:21:26;;;;;;;16.25;9.70;;;14.60;83.70;;;;;;6277166;22;20104;-81
2021/07/01 04:23:58;;;;;;;21.85;11.23;;;14.50;83.70;;;;;;6277206;22;20047;-80
2021/07/01 04:26:26;;;;;;;17.40;10.93;;;14.50;83.70;;;;;;6276998;22;20466;-83
2021/07/01 04:28:53;;;;;;;16.60;11.30;;;14.60;83.80;;;;;;6301410;22;20329;-83
2021/07/01 04:31:21;;;;;;;15.70;9.55;;;14.50;83.80;;;;;;6301325;22;20026;-83
2021/07/01 04:33:48;;;;;;;20.42;10.95;;;14.60;83.80;;;;;;6250346;22;20015;-81
2021/07/01 04:36:15;;;;;;;21.20;12.30;;;14.60;83.80;;;;;;6301290;22;20034;-81
2021/07/01 04:38:44;;;;;;;22.65;12.88;;;14.60;83.80;;;;;;6250410;22;20023;-83
2021/07/01 04:41:11;;;;;;;17.60;10.85;;;14.60;83.80;;;;;;6300879;22;20016;-83
2021/07/01 04:43:38;;;;;;;18.15;12.07;;;14.50;83.80;;;;;;6301405;22;20016;-82
2021/07/01 04:46:05;;;;;;;21.92;10.90;;;14.60;83.90;;;;;;6250317;22;20016;-84
2021/07/01 04:48:32;;;;;;;22.05;13.23;;;14.60;83.90;;;;;;6276876;22;20016;-82
2021/07/01 04:50:59;;;;;;;19.83;11.98;;;14.50;83.90;;;;;;6276913;22;20051;-81
2021/07/01 04:53:26;;;;;;;21.70;13.60;;;14.60;83.90;;;;;;6276806;22;20016;-80
2021/07/01 04:55:53;;;;;;;19.92;12.55;;;14.60;84.00;;;;;;6276439;22;20022;-80
2021/07/01 04:58:20;;;;;;;22.85;12.95;;;14.60;84.00;;;;;;6276997;22;20103;-82
2021/07/01 05:00:48;;;;;;;20.77;13.23;;;14.60;84.00;;;;;;6300752;22;20050;-82
2021/07/01 05:03:16;;;;;;;21.35;12.57;;;14.60;84.00;;;;;;6250041;22;20485;-81
2021/07/01 05:05:43;;;;;;;25.42;13.82;;;14.60;84.00;;;;;;6300854;22;20043;-83
2021/07/01 05:08:10;;;;;;;19.92;13.52;;;14.60;84.10;;;;;;6301109;22;20026;-83
2021/07/01 05:10:37;;;;;;;26.38;12.88;;;14.60;84.10;;;;;;6300877;22;20023;-83
2021/07/01 05:13:04;;;;;;;19.20;13.23;;;14.60;84.20;;;;;;6301004;22;20047;-83
2021/07/01 05:15:32;;;;;;;20.30;13.52;;;14.60;84.20;;;;;;6300853;22;20094;-82
2021/07/01 05:17:59;;;;;;;22.05;14.35;;;14.60;84.20;;;;;;6301106;22;20023;-82
2021/07/01 05:20:26;;;;;;;22.65;13.40;;;14.70;84.20;;;;;;6300813;22;20018;-81
2021/07/01 05:22:53;;;;;;;25.00;13.85;;;14.70;84.20;;;;;;6300707;22;20060;-81
2021/07/01 05:25:20;;;;;;;26.60;13.63;;;14.70;84.20;;;;;;6249738;22;20359;-81
2021/07/01 05:27:47;;;;;;;26.08;13.90;;;14.70;84.30;;;;;;6276441;22;20014;-82
2021/07/01 05:30:15;;;;;;;22.08;13.35;;;14.70;84.30;;;;;;6276368;22;20094;-83
2021/07/01 05:32:42;;;;;;;24.20;15.73;;;14.70;84.30;;;;;;6300918;22;20014;-80
2021/07/01 05:35:10;;;;;;;26.13;15.10;;;14.70;84.30;;;;;;6300859;22;20351;-83
2021/07/01 05:37:37;;;;;;;25.83;14.85;;;14.80;84.30;;;;;;6300855;22;20095;-81
2021/07/01 05:40:06;;;;;;;23.90;14.32;;;14.80;84.40;;;;;;6300905;22;20019;-81
2021/07/01 05:42:33;;;;;;;27.33;14.52;;;14.80;84.40;;;;;;6276710;22;20026;-80
2021/07/01 05:45:02;;;;;;;23.02;14.70;;;14.80;84.40;;;;;;6300461;22;20016;-81
2021/07/01 05:47:31;;;;;;;24.77;15.23;;;14.80;84.40;;;;;;6300484;22;20050;-81
2021/07/01 05:49:58;;;;;;;23.77;13.68;;;14.80;84.50;;;;;;6300484;22;20016;-80
2021/07/01 05:52:28;;;;;;;23.88;15.45;;;14.90;84.50;;;;;;6300787;22;20016;-81
2021/07/01 05:54:56;;;;;;;22.80;14.18;;;14.80;84.50;;;;;;6300143;22;20020;-82
2021/07/01 05:57:24;;;;;;;27.30;15.00;;;14.90;84.50;;;;;;6300894;22;20038;-83
2021/07/01 05:59:51;;;;;;;25.00;14.07;;;14.90;84.50;;;;;;6276067;22;20099;-81
2021/07/01 06:02:18;;;;;;;23.92;15.82;;;14.90;84.40;;;;;;6274916;22;20019;-83
2021/07/01 06:04:45;;;;;;;23.63;14.15;;;14.90;84.30;;;;;;6300865;22;20019;-83
2021/07/01 06:07:17;;;;;;;25.88;14.80;;;14.90;84.40;;;;;;6249244;22;20020;-81
2021/07/01 06:09:52;;;;;;;23.98;14.75;;;14.90;84.40;;;;;;6299411;22;20023;-84
2021/07/01 06:12:22;;;;;;;21.77;15.02;;;14.90;84.50;;;;;;6249434;22;20020;-80
2021/07/01 06:15:00;;;;;;;20.20;14.32;;;15.00;84.50;;;;;;6300290;22;20012;-82
2021/07/01 06:17:30;;;;;;;22.52;13.10;;;15.10;84.50;;;;;;6275999;22;20151;-84
2021/07/01 06:19:59;;;;;;;20.83;13.98;;;15.10;84.50;;;;;;6300237;22;20023;-81
2021/07/01 06:22:27;;;;;;;21.75;13.50;;;15.10;84.40;;;;;;6300537;22;20047;-83
2021/07/01 06:24:56;;;;;;;22.60;14.45;;;15.10;84.20;;;;;;6300276;22;20020;-80
2021/07/01 06:27:33;;;;;;;22.77;14.25;;;15.20;84.10;;;;;;6274966;22;20015;-82
2021/07/01 06:30:03;;;;;;;21.73;14.40;;;15.20;84.00;;;;;;6300405;22;20413;-83
2021/07/01 06:32:36;;;;;;;24.60;14.70;;;15.20;83.70;;;;;;6299005;22;20324;-83
2021/07/01 06:35:13;;;;;;;20.17;13.57;;;15.20;83.70;;;;;;6248510;22;20039;-82
2021/07/01 06:37:42;;;;;;;22.77;13.90;;;15.20;83.80;;;;;;6274362;22;20031;-84
2021/07/01 06:40:11;;;;;;;22.95;14.93;;;15.20;83.80;;;;;;6298993;22;20016;-82
2021/07/01 06:42:58;;;;;;;26.10;14.02;;;15.20;83.80;;;;;;6293030;22;20027;-81
2021/07/01 06:45:26;;;;;;;20.15;12.63;;;15.30;83.80;;;;;;6242893;23;20024;-82
2021/07/01 06:47:55;;;;;;;21.65;13.15;;;15.30;83.80;;;;;;6244253;22;20017;-83
2021/07/01 06:50:27;;;;;;;22.02;13.30;;;15.30;83.80;;;;;;6242584;23;20019;-88
2021/07/01 06:52:57;;;;;;;22.92;14.40;;;15.40;83.80;;;;;;6242809;23;20475;-85
2021/07/01 06:55:26;;;;;;;22.77;14.32;;;15.40;83.80;;;;;;6242931;23;20024;-83
2021/07/01 06:57:54;;;;;;;17.88;12.38;;;15.40;83.70;;;;;;6242931;23;20023;-82
2021/07/01 07:00:23;;;;;;;24.38;14.27;;;15.40;83.70;;;;;;6243019;23;20509;-83
2021/07/01 07:02:53;;;;;;;21.90;13.13;;;15.50;83.60;;;;;;6242726;23;20456;-81
2021/07/01 07:05:21;;;;;;;22.98;13.35;;;15.50;83.60;;;;;;6242530;23;20043;-82
2021/07/01 07:07:50;;;;;;;17.33;12.68;;;15.50;83.40;;;;;;6244147;22;20026;-82
2021/07/01 07:10:19;;;;;;;16.00;10.77;;;15.50;83.20;;;;;;6268450;22;20059;-83
2021/07/01 07:12:54;;;;;;;16.65;12.48;;;15.50;83.10;;;;;;6242726;23;20031;-82
2021/07/01 07:15:29;;;;;;;19.92;12.10;;;15.50;82.90;;;;;;6243979;23;20016;-83
2021/07/01 07:18:13;;;;;;;22.10;12.52;;;15.50;82.70;;;;;;6242749;23;20527;-83
2021/07/01 07:20:42;;;;;;;22.50;13.48;;;15.50;82.50;;;;;;6242004;23;20016;-82
2021/07/01 07:23:16;;;;;;;21.77;12.07;;;15.60;82.60;;;;;;6242728;23;20031;-84
2021/07/01 07:25:44;;;;;;;21.83;12.70;;;15.70;82.90;;;;;;6242992;23;20039;-85
2021/07/01 07:28:15;;;;;;;15.50;11.10;;;15.80;83.00;;;;;;6242934;23;20070;-85
2021/07/01 07:30:44;;;;;;;14.90;10.52;;;15.90;82.90;;;;;;6244404;23;20074;-83
2021/07/01 07:33:12;;;;;;;17.13;11.20;;;15.90;82.80;;;;;;6244615;23;20035;-83
2021/07/01 07:35:39;;;;;;;14.38;10.40;;;16.00;82.60;;;;;;6269422;22;20054;-85
2021/07/01 07:38:08;;;;;;;18.05;10.90;;;16.10;82.40;;;;;;6244361;23;20020;-85
2021/07/01 07:40:39;;;;;;;18.13;11.05;;;16.20;82.20;;;;;;6244545;23;20090;-87
2021/07/01 07:43:13;;;;;;;12.18;10.15;;;16.30;82.10;;;;;;6244516;23;20024;-85
2021/07/01 07:45:41;;;;;;;13.63;10.00;;;16.40;81.70;;;;;;6244629;23;20020;-87
2021/07/01 07:48:08;;;;;;;15.40;9.60;;;16.40;80.30;;;;;;6244517;23;20428;-83
2021/07/01 07:50:38;;;;;;;11.68;9.05;;;16.40;80.10;;;;;;6294907;22;20070;-84
2021/07/01 07:53:11;;;;;;;15.35;9.27;;;16.60;80.20;;;;;;6244404;23;20066;-87
2021/07/01 07:55:42;;;;;;;15.85;10.35;;;16.60;80.30;;;;;;6244069;23;20020;-88
2021/07/01 07:58:40;;;;;;;;;;;;;;;;;;;;;
2021/07/01 08:01:23;;;;;;;11.93;8.43;;;16.90;79.00;;;;;;6260870;22;20099;-85
2021/07/01 08:03:54;;;;;;;16.45;8.65;;;17.00;79.30;;;;;;6275912;22;20083;-86
2021/07/01 08:06:25;;;;;;;18.60;8.75;;;17.10;79.10;;;;;;6276287;22;20043;-88
2021/07/01 08:08:54;;;;;;;11.90;8.27;;;17.20;78.90;;;;;;6277930;22;20016;-85
2021/07/01 08:11:23;;;;;;;15.25;7.93;;;17.30;78.90;;;;;;6275962;22;20103;-87
2021/07/01 08:13:59;;;;;;;10.82;7.82;;;17.40;77.90;;;;;;6273733;22;20115;-85
2021/07/01 08:16:26;;;;;;;12.18;8.20;;;17.50;77.70;;;;;;6273659;22;20027;-86
2021/07/01 08:18:55;;;;;;;13.15;9.15;;;17.60;77.50;;;;;;6276239;22;20070;-85
2021/07/01 08:21:22;;;;;;;13.70;8.18;;;17.70;77.50;;;;;;6275623;22;20023;-87
2021/07/01 08:23:49;;;;;;;16.85;9.07;;;17.80;77.50;;;;;;6275574;22;20022;-84
2021/07/01 08:26:17;;;;;;;13.82;9.07;;;17.90;76.60;;;;;;6275982;22;20026;-86
2021/07/01 08:28:45;;;;;;;17.42;9.32;;;17.90;76.00;;;;;;6275554;22;20012;-84
2021/07/01 08:31:15;;;;;;;12.60;9.00;;;17.90;75.40;;;;;;6276180;22;20405;-83
2021/07/01 08:33:45;;;;;;;11.88;8.50;;;17.90;75.20;;;;;;6277115;22;20087;-82
2021/07/01 08:36:16;;;;;;;14.45;9.20;;;17.90;75.30;;;;;;6275644;22;20091;-84
2021/07/01 08:38:44;;;;;;;11.85;8.93;;;17.80;75.50;;;;;;6277008;22;20012;-84
2021/07/01 08:41:25;;;;;;;12.45;9.00;;;17.80;75.20;;;;;;6277026;22;20483;-85
2021/07/01 08:43:59;;;;;;;11.80;7.75;;;17.80;75.30;;;;;;6276872;22;20115;-86
2021/07/01 08:46:29;;;;;;;11.95;8.52;;;17.90;75.50;;;;;;6275642;22;20079;-84
2021/07/01 08:48:59;;;;;;;34.25;12.80;;;17.90;75.40;;;;;;6275188;22;20459;-83
2021/07/01 08:51:43;;;;;;;33.00;11.98;;;18.00;75.40;;;;;;6275478;22;20022;-86
2021/07/01 08:54:15;;;;;;;14.32;9.32;;;18.10;75.20;;;;;;6275862;22;20047;-84
2021/07/01 08:56:44;;;;;;;13.43;8.88;;;18.10;75.10;;;;;;6275906;22;20094;-87
2021/07/01 08:59:12;;;;;;;14.85;8.75;;;18.20;75.20;;;;;;6275649;22;20015;-89
2021/07/01 09:01:42;;;;;;;11.90;7.82;;;18.30;75.20;;;;;;6275388;22;20027;-85
2021/07/01 09:04:12;;;;;;;12.05;8.80;;;18.40;75.00;;;;;;6275344;22;20031;-87
2021/07/01 09:06:45;;;;;;;14.00;8.05;;;18.40;74.90;;;;;;6275546;22;20058;-89
2021/07/01 09:09:13;;;;;;;11.40;8.13;;;18.60;74.90;;;;;;6275597;22;20549;-84
2021/07/01 09:11:41;;;;;;;14.07;8.05;;;18.70;75.10;;;;;;6275533;22;20094;-85
2021/07/01 09:14:14;;;;;;;9.60;7.40;;;18.90;74.70;;;;;;6250591;22;20089;-84
2021/07/01 09:16:41;;;;;;;10.93;8.03;;;18.90;73.70;;;;;;6277020;22;20046;-85
2021/07/01 09:19:08;;;;;;;41.38;12.82;;;18.90;72.70;;;;;;6275537;22;20024;-86
2021/07/01 09:21:39;;;;;;;12.23;8.27;;;18.90;72.50;;;;;;6275476;22;20022;-86
2021/07/01 09:24:10;;;;;;;15.43;8.95;;;19.00;72.40;;;;;;6275262;22;20016;-89
2021/07/01 09:26:41;;;;;;;11.75;7.95;;;19.10;72.60;;;;;;6275103;22;20462;-87
2021/07/01 09:29:09;;;;;;;13.07;7.03;;;19.20;73.10;;;;;;6275799;22;20034;-86
2021/07/01 09:31:36;;;;;;;11.20;8.13;;;19.30;72.10;;;;;;6274945;22;20066;-87
2021/07/01 09:34:05;;;;;;;10.38;7.03;;;19.40;71.90;;;;;;6275390;22;20022;-82
2021/07/01 09:36:33;;;;;;;11.70;6.35;;;19.60;72.00;;;;;;6275509;22;20098;-87
2021/07/01 09:39:09;;;;;;;12.27;6.85;;;19.70;72.10;;;;;;6275124;22;20380;-90
2021/07/01 09:42:02;;;;;;;12.37;6.50;;;19.90;71.00;;;;;;6174372;23;20493;-87
2021/07/01 09:44:32;;;;;;;9.20;6.60;;;19.90;70.40;;;;;;6153997;23;20080;-86
2021/07/01 09:47:03;;;;;;;12.82;6.72;;;20.10;70.30;;;;;;6177797;23;20040;-85
2021/07/01 09:49:51;;;;;;;10.40;7.20;;;20.20;70.20;;;;;;6153282;23;20017;-86
2021/07/01 09:52:20;;;;;;;10.05;6.75;;;20.40;69.50;;;;;;6177687;23;20021;-85
2021/07/01 09:54:52;;;;;;;9.27;6.57;;;20.40;68.90;;;;;;6153447;23;20018;-89
2021/07/01 09:57:30;;;;;;;13.20;8.00;;;20.50;65.70;;;;;;6153184;23;20017;-86
2021/07/01 10:00:09;;;;;;;11.88;7.43;;;20.50;66.80;;;;;;6224967;22;20024;-88
2021/07/01 10:02:42;;;;;;;11.02;7.38;;;20.50;67.50;;;;;;6273276;22;20035;-86
2021/07/01 10:05:25;;;;;;;8.65;6.72;;;20.60;68.20;;;;;;6272215;22;20670;-88
2021/07/01 10:07:52;;;;;;;13.07;6.78;;;20.70;68.50;;;;;;6274095;22;20055;-84
2021/07/01 10:10:22;;;;;;;10.75;7.43;;;20.80;65.70;;;;;;6274374;22;20012;-87
2021/07/01 10:12:54;;;;;;;8.32;6.60;;;20.80;65.00;;;;;;6273254;22;20359;-86
2021/07/01 10:15:36;;;;;;;8.02;6.78;;;20.80;65.80;;;;;;6274146;22;20018;-87
2021/07/01 10:18:10;;;;;;;12.23;7.38;;;20.90;66.70;;;;;;6274229;22;20020;-87
2021/07/01 10:20:55;;;;;;;12.20;7.35;;;20.90;65.20;;;;;;6274502;22;20066;-87
2021/07/01 10:23:26;;;;;;;11.02;6.85;;;21.00;65.40;;;;;;6273786;22;20042;-87
2021/07/01 10:25:56;;;;;;;10.95;7.22;;;21.10;64.80;;;;;;6272995;22;20042;-86
2021/07/01 10:28:26;;;;;;;13.52;7.65;;;21.30;65.70;;;;;;6273639;22;20035;-86
2021/07/01 10:31:08;;;;;;;12.00;7.63;;;21.40;66.30;;;;;;6273700;22;20082;-85
2021/07/01 10:33:40;;;;;;;12.55;7.80;;;21.50;66.30;;;;;;6274889;22;20012;-87
2021/07/01 10:36:18;;;;;;;12.02;8.05;;;21.70;66.60;;;;;;6273926;22;20022;-83
2021/07/01 10:38:50;;;;;;;9.68;7.30;;;21.70;62.60;;;;;;6273558;22;20351;-86
2021/07/01 10:41:42;;;;;;;9.27;7.00;;;21.80;63.80;;;;;;6273403;22;20020;-87
2021/07/01 10:44:23;;;;;;;10.80;7.13;;;21.80;64.50;;;;;;6273423;22;20132;-85
2021/07/01 10:46:50;;;;;;;13.27;7.30;;;21.90;65.00;;;;;;6273929;22;20036;-89
2021/07/01 10:49:34;;;;;;;9.48;6.75;;;21.90;64.70;;;;;;6273521;22;20015;-88
2021/07/01 10:52:18;;;;;;;13.32;8.18;;;21.90;63.60;;;;;;6273676;22;20016;-88
2021/07/01 10:54:58;;;;;;;11.90;7.57;;;21.90;62.90;;;;;;6273732;22;20367;-82
2021/07/01 10:58:06;;;;;;;;;;;21.90;62.80;;;;;;6273607;22;20016;-87
2021/07/01 11:00:36;;;;;;;9.68;7.25;;;21.90;62.50;;;;;;6247735;22;19993;-89
2021/07/01 11:03:28;;;;;;;14.90;7.97;;;21.80;62.90;;;;;;6273698;22;20090;-85
2021/07/01 11:05:59;;;;;;;9.93;6.72;;;21.80;62.10;;;;;;6275615;22;20035;-86
2021/07/01 11:08:30;;;;;;;10.95;7.00;;;21.70;62.50;;;;;;6275842;22;20026;-86
2021/07/01 11:10:59;;;;;;;9.38;7.40;;;21.60;62.60;;;;;;6275653;22;20068;-87
2021/07/01 11:13:54;;;;;;;10.02;6.72;;;21.60;63.40;;;;;;6275392;22;20019;-87
2021/07/01 11:16:37;;;;;;;10.40;7.65;;;21.80;64.10;;;;;;6275378;22;20463;-88
2021/07/01 11:19:18;;;;;;;9.07;7.65;;;21.70;62.30;;;;;;6275006;22;20366;-87
2021/07/01 11:21:52;;;;;;;9.15;7.47;;;21.70;62.80;;;;;;6275681;22;20089;-85
2021/07/01 11:24:20;;;;;;;;;;;21.70;63.60;;;;;;6276039;22;20340;-86
2021/07/01 11:27:01;;;;;;;13.88;6.85;;;21.90;64.40;;;;;;6300567;22;19985;-86
2021/07/01 11:29:46;;;;;;;11.82;6.43;;;21.90;62.30;;;;;;6275450;22;20022;-85
2021/07/01 11:32:18;;;;;;;9.65;6.63;;;21.90;62.10;;;;;;6275353;22;20031;-85
2021/07/01 11:34:57;;;;;;;10.15;7.35;;;22.00;62.80;;;;;;6275082;22;20528;-86
2021/07/01 11:37:55;;;;;;;11.93;7.50;;;22.10;62.70;;;;;;6254787;22;20069;-88
2021/07/01 11:40:25;;;;;;;10.60;7.47;;;22.20;60.40;;;;;;6276704;22;20062;-86
2021/07/01 11:42:53;;;;;;;10.80;6.72;;;22.20;61.00;;;;;;6249719;22;20094;-88
2021/07/01 11:45:27;;;;;;;8.90;6.38;;;22.40;62.50;;;;;;6276209;22;20026;-85
2021/07/01 11:47:57;;;;;;;8.68;6.43;;;22.40;61.70;;;;;;6276627;22;20020;-85
2021/07/01 11:50:31;;;;;;;12.95;6.30;;;22.50;61.30;;;;;;6275325;22;20024;-90
2021/07/01 11:52:58;;;;;;;8.40;6.05;;;22.50;61.40;;;;;;6275181;22;20051;-88
2021/07/01 11:55:36;;;;;;;9.52;6.20;;;22.70;61.80;;;;;;6274769;22;20055;-88
2021/07/01 11:58:09;;;;;;;12.93;5.82;;;22.80;60.20;;;;;;6274917;22;20098;-85
2021/07/01 12:00:46;;;;;;;9.88;6.38;;;22.90;60.50;;;;;;6267955;22;20172;-86
2021/07/01 12:03:14;;;;;;;10.32;6.63;;;22.90;60.60;;;;;;6294632;22;20099;-85
2021/07/01 12:05:44;;;;;;;10.15;6.57;;;23.00;60.80;;;;;;6245617;22;20035;-85
2021/07/01 12:08:12;;;;;;;7.57;6.13;;;23.00;60.80;;;;;;6244559;23;20023;-85
2021/07/01 12:10:57;;;;;;;9.50;6.35;;;23.00;61.20;;;;;;6243736;23;20095;-87
2021/07/01 12:13:31;;;;;;;9.27;6.30;;;23.10;61.60;;;;;;6245363;22;20012;-86
2021/07/01 12:16:17;;;;;;;9.57;6.30;;;23.10;61.60;;;;;;6294568;22;20020;-85
2021/07/01 12:18:57;;;;;;;11.40;6.43;;;23.20;59.10;;;;;;6243865;23;20051;-87
2021/07/01 12:21:28;;;;;;;10.00;5.82;;;23.30;60.60;;;;;;6244351;23;20020;-89
2021/07/01 12:24:00;;;;;;;7.90;6.30;;;23.40;61.10;;;;;;6269329;22;20095;-87
2021/07/01 12:26:41;;;;;;;11.43;6.35;;;23.40;59.60;;;;;;6245429;22;20460;-88
2021/07/01 12:29:39;;;;;;;8.23;5.88;;;23.40;59.60;;;;;;6295298;22;20021;-85
2021/07/01 12:32:27;;;;;;;9.60;6.50;;;23.50;60.10;;;;;;6243576;23;20376;-88
2021/07/01 12:34:55;;;;;;;10.43;6.78;;;23.60;60.50;;;;;;6244263;23;20403;-85
2021/07/01 12:37:22;;;;;;;7.88;5.88;;;23.70;60.60;;;;;;6269400;22;20020;-85
2021/07/01 12:39:49;;;;;;;9.23;5.82;;;23.90;61.00;;;;;;6243148;23;20103;-88
2021/07/01 12:42:17;;;;;;;10.02;6.25;;;23.90;58.20;;;;;;6294995;22;20020;-87
2021/07/01 12:44:46;;;;;;;8.32;6.25;;;23.90;58.30;;;;;;6245398;23;20095;-83
2021/07/01 12:47:32;;;;;;;9.23;5.70;;;23.90;57.30;;;;;;6243623;23;20063;-86
2021/07/01 12:50:11;;;;;;;8.52;6.03;;;23.90;58.10;;;;;;6245471;22;20533;-87
2021/07/01 12:52:42;;;;;;;8.93;6.28;;;23.90;58.60;;;;;;6245195;22;20017;-81
2021/07/01 12:55:17;;;;;;;7.93;5.90;;;24.00;58.20;;;;;;6244680;22;20109;-82
2021/07/01 12:57:45;;;;;;;9.45;6.05;;;24.10;57.40;;;;;;6244627;23;20016;-82